Nearby METAR Reports

 

KMFD - Mansfield, Ohio, USA
Distance from station: E 12mi, 20km
Updated: 06/16/2021 8:52am
Clear
Clear
 Wind from NW
Wind: NW 5 mph , 7 km/h
Temperature: 64°F , 18°C
Dew Point: 48°F , 9°C
Humidity: 56%
Barometer: 30.11 inHg , 1019.6 hPa
Clouds: Clear
Visibility: 10 miles , 16 km
2021/06/16 12:52 KMFD 161252Z 32004KT 10SM CLR 18/09 A3011 RMK AO2 SLP192 T01780094 $
KMNN - Marion, Ohio, USA
Distance from station: SW 20mi, 33km
Updated: 06/16/2021 8:53am
Clear
Clear
 Wind from varies
Wind: varies 3 mph , 6 km/h
Temperature: 63°F , 17°C
Dew Point: 48°F , 9°C
Humidity: 59%
Barometer: 30.12 inHg , 1020 hPa
Clouds: Clear
Visibility: 10 miles , 16 km
2021/06/16 12:53 KMNN 161253Z AUTO VRB03KT 10SM CLR 17/09 A3012 RMK AO2 SLP196 T01670089
 
K4I3 - Mt Vernon/Knox, Ohio, USA
Distance from station: SSE 33mi, 54km
Updated: 06/16/2021 9:15am
Clear
Clear
 Wind from N
Wind: N 7 mph , 11 km/h
Temperature: 63°F , 17°C
Dew Point: 48°F , 9°C
Humidity: 59%
Barometer: 30.12 inHg , 1020 hPa
Clouds: Clear
Visibility: 10 miles , 16 km
2021/06/16 13:15 K4I3 161315Z AUTO 35006KT 10SM CLR 17/09 A3012 RMK AO2
KDLZ - Delaware, Ohio, USA
Distance from station: SSW 40mi, 64km
Updated: 06/16/2021 9:15am
Clear
Clear
 Wind from NNW
Wind: NNW 5 mph , 7 km/h
Temperature: 63°F , 17°C
Dew Point: 46°F , 8°C
Humidity: 56%
Barometer: 30.12 inHg , 1020 hPa
Clouds: Clear
Visibility: 10 miles , 16 km
2021/06/16 13:15 KDLZ 161315Z AUTO 34004KT 10SM CLR 17/08 A3012 RMK AO2
 
KBJJ - Wooster, Ohio, USA
Distance from station: E 46mi, 73km
Updated: 06/16/2021 8:56am
Clear
Clear
 Wind from N
Wind: N 9 mph , 15 km/h
Temperature: 63°F , 17°C
Dew Point: 48°F , 9°C
Humidity: 59%
Barometer: 30.10 inHg , 1019.3 hPa
Clouds: Clear
Visibility: 10 miles , 16 km
2021/06/16 12:56 KBJJ 161256Z AUTO 35008KT 10SM CLR 17/09 A3010 RMK AO2 SLP191 T01670094
KLPR - Lorain/Elyria, Ohio, USA
Distance from station: NE 49mi, 79km
Updated: 06/16/2021 8:53am
Clear
Clear
 Wind from N
Wind: N 5 mph , 7 km/h
Temperature: 64°F , 18°C
Dew Point: 50°F , 10°C
Humidity: 60%
Barometer: 30.10 inHg , 1019.3 hPa
Clouds: Clear
Visibility: 10 miles , 16 km
2021/06/16 12:53 KLPR 161253Z AUTO 36004KT 10SM CLR 18/10 A3010 RMK AO2 SLP190 T01830100